Map

Track Data

SID SEASON NUMBER BASIN SUBBASIN NAME ISO_TIME NATURE LAT LON WMO_WIND WMO_PRES WMO_AGENCY TRACK_TYPE DIST2LAND LANDFALL IFLAG USA_AGENCY USA_ATCF_ID USA_LAT USA_LON USA_RECORD USA_STATUS USA_WIND USA_PRES USA_SSHS USA_R34_NE USA_R34_SE USA_R34_SW USA_R34_NW USA_R50_NE USA_R50_SE USA_R50_SW USA_R50_NW USA_R64_NE USA_R64_SE USA_R64_SW USA_R64_NW USA_POCI USA_ROCI USA_RMW USA_EYE TOKYO_LAT TOKYO_LON TOKYO_GRADE TOKYO_WIND TOKYO_PRES TOKYO_R50_DIR TOKYO_R50_LONG TOKYO_R50_SHORT TOKYO_R30_DIR TOKYO_R30_LONG TOKYO_R30_SHORT TOKYO_LAND CMA_LAT CMA_LON CMA_CAT CMA_WIND CMA_PRES HKO_LAT HKO_LON HKO_CAT HKO_WIND HKO_PRES NEWDELHI_LAT NEWDELHI_LON NEWDELHI_GRADE NEWDELHI_WIND NEWDELHI_PRES NEWDELHI_CI NEWDELHI_DP NEWDELHI_POCI REUNION_LAT REUNION_LON REUNION_TYPE REUNION_WIND REUNION_PRES REUNION_TNUM REUNION_CI REUNION_RMW REUNION_R34_NE REUNION_R34_SE REUNION_R34_SW REUNION_R34_NW REUNION_R50_NE REUNION_R50_SE REUNION_R50_SW REUNION_R50_NW REUNION_R64_NE REUNION_R64_SE REUNION_R64_SW REUNION_R64_NW BOM_LAT BOM_LON BOM_TYPE BOM_WIND BOM_PRES BOM_TNUM BOM_CI BOM_RMW BOM_R34_NE BOM_R34_SE BOM_R34_SW BOM_R34_NW BOM_R50_NE BOM_R50_SE BOM_R50_SW BOM_R50_NW BOM_R64_NE BOM_R64_SE BOM_R64_SW BOM_R64_NW BOM_ROCI BOM_POCI BOM_EYE BOM_POS_METHOD BOM_PRES_METHOD NADI_LAT NADI_LON NADI_CAT NADI_WIND NADI_PRES WELLINGTON_LAT WELLINGTON_LON WELLINGTON_WIND WELLINGTON_PRES DS824_LAT DS824_LON DS824_STAGE DS824_WIND DS824_PRES TD9636_LAT TD9636_LON TD9636_STAGE TD9636_WIND TD9636_PRES TD9635_LAT TD9635_LON TD9635_WIND TD9635_PRES TD9635_ROCI NEUMANN_LAT NEUMANN_LON NEUMANN_CLASS NEUMANN_WIND NEUMANN_PRES MLC_LAT MLC_LON MLC_CLASS MLC_WIND MLC_PRES USA_GUST BOM_GUST BOM_GUST_PER REUNION_GUST REUNION_GUST_PER USA_SEAHGT USA_SEARAD_NE USA_SEARAD_SE USA_SEARAD_SW USA_SEARAD_NW STORM_SPEED STORM_DIR
1860252N18284 1860 27 NA CS NOT_NAMED 1860-09-07 12:00:00 TS 17.5000 -76.2000 main 44 11 _____________O -1 17.5000 -76.2000 TD 30 10 311
1860252N18284 1860 27 NA CS NOT_NAMED 1860-09-07 15:00:00 TS 17.8377 -76.5998 main 11 0 _____________P -1 17.8377 -76.5998 TD 30 10 313
1860252N18284 1860 27 NA CS NOT_NAMED 1860-09-07 18:00:00 TS 18.2000 -77.0000 main 0 0 _____________O -1 18.2000 -77.0000 TD 30 11 315
1860252N18284 1860 27 NA CS NOT_NAMED 1860-09-07 21:00:00 TS 18.5999 -77.4001 main 22 22 _____________P -1 18.5999 -77.4001 TD 30 11 317
1860252N18284 1860 27 NA CS NOT_NAMED 1860-09-08 00:00:00 TS 19.0000 -77.8000 main 67 67 _____________O -1 19.0000 -77.8000 TD 30 11 315
1860252N18284 1860 27 NA CS NOT_NAMED 1860-09-08 03:00:00 TS 19.3499 -78.2003 main 76 68 _____________P -1 19.3499 -78.2003 TD 30 10 313
1860252N18284 1860 27 NA CS NOT_NAMED 1860-09-08 06:00:00 TS 19.7000 -78.6000 main 94 94 _____________O -1 19.7000 -78.6000 TD 30 11 315
1860252N18284 1860 27 NA CS NOT_NAMED 1860-09-08 09:00:00 TS 20.1000 -79.0075 main 113 106 _____________P -1 20.1000 -79.0075 TD 30 11 317
1860252N18284 1860 27 NA CS NOT_NAMED 1860-09-08 12:00:00 TS 20.5000 -79.4000 main 109 80 _____________O -1 20.5000 -79.4000 TD 30 10 318
1860252N18284 1860 27 NA CS NOT_NAMED 1860-09-08 15:00:00 TS 20.8724 -79.7577 main 84 55 _____________P -1 20.8724 -79.7577 TD 30 10 317
1860252N18284 1860 27 NA CS NOT_NAMED 1860-09-08 18:00:00 TS 21.2000 -80.1000 main 56 45 _____________O -1 21.2000 -80.1000 TD 30 9 313
1860252N18284 1860 27 NA CS NOT_NAMED 1860-09-08 21:00:00 TS 21.4649 -80.4502 main 49 44 _____________P -1 21.4649 -80.4502 TD 30 8 307
1860252N18284 1860 27 NA CS NOT_NAMED 1860-09-09 00:00:00 TS 21.7000 -80.8000 main 44 15 _____________O -1 21.7000 -80.8000 TD 30 8 307
1860252N18284 1860 27 NA CS NOT_NAMED 1860-09-09 03:00:00 TS 21.9499 -81.1427 main 15 0 _____________P -1 21.9499 -81.1427 TD 30 8 308
1860252N18284 1860 27 NA CS NOT_NAMED 1860-09-09 06:00:00 TS 22.2000 -81.5000 main 0 0 _____________O -1 22.2000 -81.5000 TD 30 9 305
1860252N18284 1860 27 NA CS NOT_NAMED 1860-09-09 09:00:00 TS 22.4501 -81.9150 main 11 0 _____________P -1 22.4501 -81.9150 TD 30 9 304
1860252N18284 1860 27 NA CS NOT_NAMED 1860-09-09 12:00:00 TS 22.7000 -82.3000 main 0 0 _____________O -1 22.7000 -82.3000 TD 30 8 309
1860252N18284 1860 27 NA NA NOT_NAMED 1860-09-09 15:00:00 TS 22.9649 -82.6025 main 0 0 _____________P -1 22.9649 -82.6025 TD 30 7 317
1860252N18284 1860 27 NA NA NOT_NAMED 1860-09-09 18:00:00 TS 23.2000 -82.8000 main 22 22 _____________O -1 23.2000 -82.8000 TD 30 5 328
1860252N18284 1860 27 NA NA NOT_NAMED 1860-09-09 21:00:00 TS 23.3724 -82.8802 main 45 45 _____________P -1 23.3724 -82.8802 TD 32 3 344
1860252N18284 1860 27 NA NA NOT_NAMED 1860-09-10 00:00:00 TS 23.5000 -82.9000 main 56 56 _____________O -1 23.5000 -82.9000 TS 35 2 343
1860252N18284 1860 27 NA NA NOT_NAMED 1860-09-10 03:00:00 TS 23.6000 -82.9500 main 70 70 _____________P -1 23.6000 -82.9500 TS 45 2 335
1860252N18284 1860 27 NA GM NOT_NAMED 1860-09-10 06:00:00 TS 23.7000 -83.0000 main 80 80 _____________O -1 23.7000 -83.0000 TS 55 3 340
1860252N18284 1860 27 NA GM NOT_NAMED 1860-09-10 09:00:00 TS 23.8500 -83.0500 main 102 91 _____________P -1 23.8500 -83.0500 TS 65 3 344
1860252N18284 1860 27 NA GM NOT_NAMED 1860-09-10 12:00:00 TS 24.0000 -83.1000 main 115 115 _____________O -1 24.0000 -83.1000 HU 75 3 341
1860252N18284 1860 27 NA GM NOT_NAMED 1860-09-10 15:00:00 TS 24.1150 -83.1500 main 126 129 _____________P -1 24.1150 -83.1500 HU 77 2 335
1860252N18284 1860 27 NA GM NOT_NAMED 1860-09-10 18:00:00 TS 24.2000 -83.2000 main 140 140 _____________O -1 24.2000 -83.2000 HU 80 2 328
1860252N18284 1860 27 NA GM NOT_NAMED 1860-09-10 21:00:00 TS 24.2575 -83.2500 main 153 153 _____________P -1 24.2575 -83.2500 HU 80 4 326
1860252N18284 1860 27 NA GM NOT_NAMED 1860-09-11 00:00:00 TS 24.5667 -83.4667 90 hurdat_atl main 190 190 O____________O hurdat_atl AL041860 25.1000 -83.8000 HU 90 2 24.3000 -83.3000 HU 80 6 324
1860252N18284 1860 27 NA GM NOT_NAMED 1860-09-11 03:00:00 TS 24.7550 -83.6437 main 213 213 P____________P AL041860 25.1600 -83.9375 HU 90 2 24.3500 -83.3500 HU 82 4 314
1860252N18284 1860 27 NA GM NOT_NAMED 1860-09-11 06:00:00 TS 24.8800 -83.8200 90 hurdat_atl main 227 227 O____________O hurdat_atl AL041860 25.2000 -84.1000 HU 90 2 24.4000 -83.4000 HU 85 4 301
1860252N18284 1860 27 NA GM NOT_NAMED 1860-09-11 09:00:00 TS 24.9500 -84.0092 main 242 242 P____________P AL041860 25.2075 -84.3000 HU 90 2 24.4350 -83.4276 HU 85 3 285
1860252N18284 1860 27 NA GM NOT_NAMED 1860-09-11 12:00:00 TS 24.9667 -84.1667 90 hurdat_atl main 248 248 O____________O hurdat_atl AL041860 25.2000 -84.5000 HU 90 2 24.5000 -83.5000 HU 85 3 282
1860252N18284 1860 27 NA GM NOT_NAMED 1860-09-11 15:00:00 TS 25.0116 -84.3258 main 251 251 P____________P AL041860 25.1999 -84.6500 HU 90 2 24.6350 -83.6774 HU 85 3 288
1860252N18284 1860 27 NA GM NOT_NAMED 1860-09-11 18:00:00 TS 25.0667 -84.5000 90 hurdat_atl main 269 269 O____________O hurdat_atl AL041860 25.2000 -84.8000 HU 90 2 24.8000 -83.9000 HU 85 3 287
1860252N18284 1860 27 NA GM NOT_NAMED 1860-09-11 21:00:00 TS 25.1117 -84.6950 main 276 276 P____________P AL041860 25.1925 -84.9925 HU 90 2 24.9500 -84.1001 HU 85 4 285
1860252N18284 1860 27 NA GM NOT_NAMED 1860-09-12 00:00:00 TS 25.1667 -84.9000 90 hurdat_atl main 293 293 O____________O hurdat_atl AL041860 25.2000 -85.2000 HU 90 2 25.1000 -84.3000 HU 85 4 290
1860252N18284 1860 27 NA GM NOT_NAMED 1860-09-12 03:00:00 TS 25.2450 -85.1000 main 300 300 P____________P AL041860 25.2425 -85.4000 HU 90 2 25.2500 -84.5000 HU 85 4 295
1860252N18284 1860 27 NA GM NOT_NAMED 1860-09-12 06:00:00 TS 25.3333 -85.3000 90 hurdat_atl main 319 319 O____________O hurdat_atl AL041860 25.3000 -85.6000 HU 90 2 25.4000 -84.7000 HU 85 4 296
1860252N18284 1860 27 NA GM NOT_NAMED 1860-09-12 09:00:00 TS 25.4166 -85.4925 main 337 337 P____________P AL041860 25.3499 -85.7850 HU 90 2 25.5500 -84.9075 HU 87 4 295
1860252N18284 1860 27 NA GM NOT_NAMED 1860-09-12 12:00:00 TS 25.5000 -85.7000 90 hurdat_atl main 357 357 O____________O hurdat_atl AL041860 25.4000 -86.0000 HU 90 2 25.7000 -85.1000 HU 90 4 292
1860252N18284 1860 27 NA GM NOT_NAMED 1860-09-12 15:00:00 TS 25.5834 -85.9450 main 377 377 P____________P AL041860 25.4501 -86.2925 HU 90 2 25.8499 -85.2501 HU 90 5 290
1860252N18284 1860 27 NA GM NOT_NAMED 1860-09-12 18:00:00 TS 25.6667 -86.2000 90 hurdat_atl main 400 400 O____________O hurdat_atl AL041860 25.5000 -86.6000 HU 90 2 26.0000 -85.4000 HU 90 5 291
1860252N18284 1860 27 NA GM NOT_NAMED 1860-09-12 21:00:00 TS 25.7499 -86.4359 main 414 413 P____________P AL041860 25.5499 -86.8575 HU 90 2 26.1500 -85.5925 HU 90 5 292
1860252N18284 1860 27 NA GM NOT_NAMED 1860-09-13 00:00:00 TS 25.8333 -86.6667 90 hurdat_atl main 428 408 O____________O hurdat_atl AL041860 25.6000 -87.1000 HU 90 2 26.3000 -85.8000 HU 90 4 291
1860252N18284 1860 27 NA GM NOT_NAMED 1860-09-13 03:00:00 TS 25.9116 -86.9001 main 408 388 P____________P AL041860 25.6425 -87.3501 HU 90 2 26.4500 -86.0001 HU 90 5 292
1860252N18284 1860 27 NA GM NOT_NAMED 1860-09-13 06:00:00 TS 26.0000 -87.1333 90 hurdat_atl main 388 364 O____________O hurdat_atl AL041860 25.7000 -87.6000 HU 90 2 26.6000 -86.2000 HU 90 5 295
1860252N18284 1860 27 NA GM NOT_NAMED 1860-09-13 09:00:00 TS 26.1066 -87.3667 main 364 345 P____________P AL041860 25.7850 -87.8500 HU 90 2 26.7500 -86.4000 HU 90 5 299
1860252N18284 1860 27 NA GM NOT_NAMED 1860-09-13 12:00:00 TS 26.2333 -87.6000 90 hurdat_atl main 345 317 O____________O hurdat_atl AL041860 25.9000 -88.1000 HU 90 2 26.9000 -86.6000 HU 90 5 303
1860252N18284 1860 27 NA GM NOT_NAMED 1860-09-13 15:00:00 TS 26.3682 -87.8235 main 317 295 P____________P AL041860 26.0274 -88.3352 HU 90 2 27.0500 -86.8000 HU 90 5 306
1860252N18284 1860 27 NA GM NOT_NAMED 1860-09-13 18:00:00 TS 26.5333 -88.0667 90 hurdat_atl main 295 265 O____________O hurdat_atl AL041860 26.2000 -88.6000 HU 90 2 27.2000 -87.0000 HU 90 6 307
1860252N18284 1860 27 NA GM NOT_NAMED 1860-09-13 21:00:00 TS 26.7401 -88.3790 main 265 226 P____________P AL041860 26.4352 -88.9648 HU 90 2 27.3500 -87.2075 HU 90 7 309
1860252N18284 1860 27 NA GM NOT_NAMED 1860-09-14 00:00:00 TS 26.9667 -88.6667 90 hurdat_atl main 226 203 O____________O hurdat_atl AL041860 26.7000 -89.3000 HU 90 2 27.5000 -87.4000 HU 90 6 317
1860252N18284 1860 27 NA GM NOT_NAMED 1860-09-14 03:00:00 TS 27.1832 -88.8418 main 203 178 P____________P AL041860 26.9499 -89.4877 HU 90 2 27.6499 -87.5501 HU 92 5 329
1860252N18284 1860 27 NA GM NOT_NAMED 1860-09-14 06:00:00 TS 27.4000 -88.9667 90 hurdat_atl main 178 156 O____________O hurdat_atl AL041860 27.2000 -89.6000 HU 90 2 27.8000 -87.7000 HU 95 5 331
1860252N18284 1860 27 NA GM NOT_NAMED 1860-09-14 09:00:00 TS 27.6117 -89.1125 main 156 134 P____________P AL041860 27.4425 -89.7225 HU 90 2 27.9500 -87.8925 HU 95 5 331
1860252N18284 1860 27 NA GM NOT_NAMED 1860-09-14 12:00:00 TS 27.8333 -89.2333 90 hurdat_atl main 134 102 O____________O hurdat_atl AL041860 27.7000 -89.8000 HU 90 2 28.1000 -88.1000 HU 95 5 339
1860252N18284 1860 27 NA GM NOT_NAMED 1860-09-14 15:00:00 TS 28.0783 -89.3151 main 102 83 P____________P AL041860 27.9925 -89.8225 HU 90 2 28.2500 -88.3001 HU 95 5 346
1860252N18284 1860 27 NA GM NOT_NAMED 1860-09-14 18:00:00 TS 28.3333 -89.3667 90 hurdat_atl main 83 53 O____________O hurdat_atl AL041860 28.3000 -89.8000 HU 90 2 28.4000 -88.5000 HU 95 5 350
1860252N18284 1860 27 NA GM NOT_NAMED 1860-09-14 21:00:00 TS 28.5783 -89.4153 main 53 33 P____________P AL041860 28.6000 -89.7617 HU 90 2 28.5350 -88.7225 HU 95 5 353
1860252N18284 1860 27 NA GM NOT_NAMED 1860-09-15 00:00:00 TS 28.8333 -89.4333 90 hurdat_atl main 33 0 O____________O hurdat_atl AL041860 28.9000 -89.7000 HU 90 2 28.7000 -88.9000 HU 95 5 0
1860252N18284 1860 27 NA GM NOT_NAMED 1860-09-15 03:00:00 TS 29.1142 -89.4039 main 0 0 P____________P AL041860 29.2000 -89.6159 HU 90 2 28.9425 -88.9801 HU 95 6 7
1860252N18284 1860 27 NA NA NOT_NAMED 1860-09-15 04:00:00 TS 29.2101 -89.3970 90 hurdat_atl main 0 0 O____________P hurdat_atl AL041860 29.3000 -89.6000 L HU 90 2 29.0303 -88.9909 HU 95 6 0
1860252N18284 1860 27 NA GM NOT_NAMED 1860-09-15 06:00:00 TS 29.4000 -89.4000 90 hurdat_atl main 11 0 O____________O hurdat_atl AL041860 29.5000 -89.6000 HU 90 2 29.2000 -89.0000 HU 95 5 5
1860252N18284 1860 27 NA GM NOT_NAMED 1860-09-15 09:00:00 TS 29.6649 -89.3582 main 0 0 P____________P AL041860 29.7935 -89.5297 HU 90 2 29.4075 -89.0150 HU 92 5 13
1860252N18284 1860 27 NA GM NOT_NAMED 1860-09-15 12:00:00 TS 29.9333 -89.2667 90 hurdat_atl main 0 0 O____________O hurdat_atl AL041860 30.1000 -89.4000 HU 90 2 29.6000 -89.0000 HU 90 6 17
1860252N18284 1860 27 NA GM NOT_NAMED 1860-09-15 15:00:00 TS 30.2033 -89.1722 main 11 0 P____________P AL041860 30.4199 -89.2722 HU 80 1 29.7700 -88.9723 HU 82 6 19
1860252N18284 1860 27 NA NA NOT_NAMED 1860-09-15 18:00:00 TS 30.5333 -89.0333 70 hurdat_atl main 0 0 O____________O hurdat_atl AL041860 30.8000 -89.1000 HU 70 1 30.0000 -88.9000 HU 75 8 20
1860252N18284 1860 27 NA NA NOT_NAMED 1860-09-15 21:00:00 TS 30.9424 -88.8560 main 0 0 P____________P AL041860 31.2625 -88.8723 HU 60 0 30.3022 -88.8234 HU 62 9 23
1860252N18284 1860 27 NA NA NOT_NAMED 1860-09-16 00:00:00 TS 31.4000 -88.6000 50 hurdat_atl main 0 0 O____________O hurdat_atl AL041860 31.8000 -88.6000 TS 50 0 30.8000 -88.6000 TS 50 12 27
1860252N18284 1860 27 NA NA NOT_NAMED 1860-09-16 03:00:00 TS 31.9925 -88.2232 main 0 0 P____________P AL041860 32.3876 -88.3058 TS 45 0 31.5975 -88.1406 TS 40 15 30
1860252N18284 1860 27 NA NA NOT_NAMED 1860-09-16 06:00:00 TS 32.7000 -87.7000 40 hurdat_atl main 0 0 O____________O hurdat_atl AL041860 33.0000 -88.0000 TS 40 0 32.5000 -87.5000 TD 30 18 43
1860252N18284 1860 27 NA NA NOT_NAMED 1860-09-16 09:00:00 TS 33.2933 -86.7716 main 0 0 _____________P AL041860 TS -1 33.2933 -86.7716 TD 30 19 48
1860252N18284 1860 27 NA NA NOT_NAMED 1860-09-16 12:00:00 TS 34.0000 -86.0000 main 0 _____________O -1 34.0000 -86.0000 TD 30 19 42

About IBTrACS Database

This database is a web-friendly format of International Best Track Archive for Climate Stewardship (IBTrACS), a global best track data archive curated by NOAA dating back to 1842.

Updated: 2021-10-08